Time;durP1;ratioP1;P1;durP2;ratioP2;P2;SDS_P1;SDS_P2;PMS_P1;PMS_P2;Temp;Humidity;BMP_temperature;BMP_pressure;BME280_temperature;BME280_humidity;BME280_pressure;Samples;Min_cycle;Max_cycle;Signal;HPM_P1;HPM_P2
2021/07/06 00:00:36;;;;;;;27.35;19.13;;;;;10.60;101572.00;;;;5102021;28;20068;-76
2021/07/06 00:03:02;;;;;;;27.23;18.02;;;;;10.60;101555.00;;;;5103878;28;20043;-76
2021/07/06 00:05:29;;;;;;;24.40;17.88;;;;;10.50;101558.00;;;;5104636;28;20032;-77
2021/07/06 00:07:56;;;;;;;24.85;16.35;;;;;10.50;101561.00;;;;5094482;28;20066;-77
2021/07/06 00:10:24;;;;;;;21.67;15.50;;;;;10.40;101571.00;;;;5091959;28;20035;-76
2021/07/06 00:12:52;;;;;;;34.63;27.00;;;;;10.40;101550.00;;;;5105039;28;20084;-77
2021/07/06 00:15:23;;;;;;;37.08;33.08;;;;;10.40;101538.00;;;;5102181;28;20043;-76
2021/07/06 00:17:51;;;;;;;30.88;22.38;;;;;10.30;101567.00;;;;5104825;28;20027;-76
2021/07/06 00:20:20;;;;;;;32.28;24.40;;;;;10.30;101567.00;;;;5082188;28;20031;-77
2021/07/06 00:22:47;;;;;;;33.47;25.60;;;;;10.20;101550.00;;;;5108878;28;20063;-76
2021/07/06 00:25:14;;;;;;;35.00;25.45;;;;;10.20;101571.00;;;;5108947;28;20031;-76
2021/07/06 00:27:41;;;;;;;33.45;25.90;;;;;10.10;101578.00;;;;5091378;28;20394;-76
2021/07/06 00:30:09;;;;;;;35.80;26.88;;;;;10.10;101569.00;;;;5109831;28;20114;-76
2021/07/06 00:32:36;;;;;;;42.53;24.25;;;;;10.00;101573.00;;;;5110177;28;20064;-76
2021/07/06 00:35:04;;;;;;;31.63;22.63;;;;;10.00;101552.00;;;;5109344;28;20030;-76
2021/07/06 00:37:31;;;;;;;31.63;22.65;;;;;10.10;101571.00;;;;5108438;28;20039;-76
2021/07/06 00:39:58;;;;;;;25.77;20.98;;;;;10.00;101576.00;;;;5109026;28;20474;-77
2021/07/06 00:42:25;;;;;;;32.08;24.30;;;;;10.00;101552.00;;;;5109278;28;20523;-76
2021/07/06 00:44:53;;;;;;;27.92;21.95;;;;;10.00;101564.00;;;;5109873;28;20111;-77
2021/07/06 00:47:31;;;;;;;32.05;22.42;;;;;9.90;101552.00;;;;5108962;28;20031;-76
2021/07/06 00:49:58;;;;;;;30.42;21.08;;;;;10.00;101568.00;;;;5109171;28;20030;-76
2021/07/06 00:52:25;;;;;;;30.67;21.88;;;;;10.00;101538.00;;;;5109217;28;20444;-76
2021/07/06 00:54:52;;;;;;;25.38;20.17;;;;;9.90;101552.00;;;;5109107;28;20027;-76
2021/07/06 00:57:28;;;;;;;22.90;19.80;;;;;10.00;101541.00;;;;5109451;28;20107;-76
2021/07/06 01:00:06;;;;;;;23.25;17.52;;;;;9.90;101551.00;;;;5109142;28;20023;-76
2021/07/06 01:02:33;;;;;;;31.55;20.67;;;;;9.80;101562.00;;;;5108975;28;20131;-76
2021/07/06 01:04:59;;;;;;;31.65;20.67;;;;;9.80;101577.00;;;;5109128;28;20024;-76
2021/07/06 01:07:26;;;;;;;20.25;18.05;;;;;9.80;101590.00;;;;5108790;28;20125;-76
2021/07/06 01:09:52;;;;;;;27.92;19.20;;;;;9.70;101598.00;;;;5109504;28;20034;-76
2021/07/06 01:12:20;;;;;;;27.35;20.25;;;;;9.70;101564.00;;;;5108209;28;20532;-76
2021/07/06 01:14:47;;;;;;;27.70;18.23;;;;;9.70;101586.00;;;;5108612;28;20043;-76
2021/07/06 01:17:14;;;;;;;22.40;17.67;;;;;9.70;101577.00;;;;5108993;28;20035;-76
2021/07/06 01:19:42;;;;;;;25.58;17.77;;;;;9.80;101581.00;;;;5108677;28;20398;-76
2021/07/06 01:22:09;;;;;;;28.13;19.85;;;;;9.80;101560.00;;;;5109318;28;20069;-76
2021/07/06 01:24:39;;;;;;;23.58;19.85;;;;;9.80;101579.00;;;;5108771;28;20024;-76
2021/07/06 01:27:05;;;;;;;28.00;19.05;;;;;9.70;101576.00;;;;5108801;28;20031;-76
2021/07/06 01:29:32;;;;;;;26.73;19.45;;;;;9.70;101589.00;;;;5109199;28;20039;-76
2021/07/06 01:31:59;;;;;;;24.27;19.15;;;;;9.70;101583.00;;;;5108148;28;20567;-76
2021/07/06 01:34:26;;;;;;;29.02;20.02;;;;;9.70;101601.00;;;;5108886;28;20028;-76
2021/07/06 01:36:53;;;;;;;22.55;18.63;;;;;9.60;101592.00;;;;5108689;28;20039;-76
2021/07/06 01:39:21;;;;;;;26.02;16.90;;;;;9.50;101584.00;;;;5108458;28;20059;-76
2021/07/06 01:41:47;;;;;;;23.08;17.60;;;;;9.50;101577.00;;;;5107926;28;20070;-76
2021/07/06 01:44:25;;;;;;;31.35;21.73;;;;;9.50;101577.00;;;;5108869;28;20114;-76
2021/07/06 01:46:55;;;;;;;45.22;29.40;;;;;9.60;101600.00;;;;5108602;28;20380;-76
2021/07/06 01:49:22;;;;;;;41.42;30.02;;;;;9.60;101585.00;;;;5108287;28;20610;-76
2021/07/06 01:51:49;;;;;;;32.38;22.35;;;;;9.50;101584.00;;;;5108157;28;20592;-76
2021/07/06 01:54:17;;;;;;;32.30;23.25;;;;;9.50;101574.00;;;;5108028;28;20059;-76
2021/07/06 01:56:46;;;;;;;31.35;23.77;;;;;9.50;101593.00;;;;5108417;28;20897;-76
2021/07/06 01:59:15;;;;;;;35.53;27.08;;;;;9.40;101599.00;;;;5108291;28;20035;-76
2021/07/06 02:01:44;;;;;;;38.38;28.02;;;;;9.40;101613.00;;;;5108029;28;20047;-76
2021/07/06 02:04:13;;;;;;;41.78;25.88;;;;;9.40;101581.00;;;;5107956;28;20026;-76
2021/07/06 02:06:40;;;;;;;43.10;29.05;;;;;9.40;101577.00;;;;5107816;28;20023;-76
2021/07/06 02:09:07;;;;;;;45.30;30.95;;;;;9.50;101574.00;;;;5108148;28;20406;-76
2021/07/06 02:11:34;;;;;;;46.88;30.38;;;;;9.40;101565.00;;;;5108138;28;20034;-76
2021/07/06 02:14:01;;;;;;;40.38;29.23;;;;;9.40;101564.00;;;;5107678;28;20552;-76
2021/07/06 02:16:28;;;;;;;37.88;26.85;;;;;9.30;101565.00;;;;5107703;28;20023;-76
2021/07/06 02:18:55;;;;;;;64.18;40.72;;;;;9.30;101558.00;;;;5089776;28;20063;-77
2021/07/06 02:21:22;;;;;;;77.38;42.95;;;;;9.40;101559.00;;;;5107334;28;20035;-76
2021/07/06 02:23:49;;;;;;;51.33;33.70;;;;;9.40;101573.00;;;;5107473;28;20150;-76
2021/07/06 02:26:16;;;;;;;36.35;27.63;;;;;9.30;101585.00;;;;5106897;28;20028;-76
2021/07/06 02:28:43;;;;;;;43.50;28.55;;;;;9.20;101557.00;;;;5107701;28;20032;-76
2021/07/06 02:31:09;;;;;;;43.83;30.20;;;;;9.20;101585.00;;;;5107616;28;20042;-77
2021/07/06 02:33:36;;;;;;;59.22;37.17;;;;;9.30;101560.00;;;;5107117;28;20046;-77
2021/07/06 02:36:04;;;;;;;73.65;41.15;;;;;9.50;101548.00;;;;5107372;28;20024;-77
2021/07/06 02:38:31;;;;;;;75.18;43.40;;;;;9.40;101549.00;;;;5107449;28;20027;-76
2021/07/06 02:40:58;;;;;;;59.00;40.22;;;;;9.30;101565.00;;;;5107495;28;20035;-76
2021/07/06 02:43:25;;;;;;;53.97;38.17;;;;;9.20;101550.00;;;;5107204;28;20521;-77
2021/07/06 02:45:51;;;;;;;57.22;39.67;;;;;9.20;101538.00;;;;5107045;28;20040;-76
2021/07/06 02:48:18;;;;;;;54.70;37.90;;;;;9.10;101543.00;;;;5106790;28;21132;-76
2021/07/06 02:50:45;;;;;;;58.30;35.90;;;;;9.10;101561.00;;;;5106716;28;20430;-76
2021/07/06 02:53:13;;;;;;;57.85;39.42;;;;;9.00;101557.00;;;;5107065;28;20030;-76
2021/07/06 02:55:40;;;;;;;52.15;36.25;;;;;9.10;101540.00;;;;5107252;28;20038;-76
2021/07/06 02:58:08;;;;;;;54.78;35.30;;;;;9.00;101528.00;;;;5107431;28;20031;-76
2021/07/06 03:00:35;;;;;;;53.05;33.40;;;;;9.00;101524.00;;;;5107870;28;20050;-77
2021/07/06 03:03:07;;;;;;;47.58;35.22;;;;;8.80;101533.00;;;;5106882;28;20043;-77
2021/07/06 03:05:34;;;;;;;74.90;46.58;;;;;8.80;101546.00;;;;5107149;28;20107;-76
2021/07/06 03:08:02;;;;;;;56.95;38.30;;;;;8.90;101517.00;;;;5106606;28;20035;-77
2021/07/06 03:10:34;;;;;;;46.40;33.30;;;;;8.80;101525.00;;;;5106831;28;20032;-75
2021/07/06 03:13:01;;;;;;;55.30;36.60;;;;;8.80;101523.00;;;;5106609;28;20486;-76
2021/07/06 03:15:31;;;;;;;56.45;37.40;;;;;8.90;101550.00;;;;5106644;28;20081;-76
2021/07/06 03:17:59;;;;;;;55.13;33.15;;;;;8.80;101513.00;;;;5107180;28;20027;-75
2021/07/06 03:20:27;;;;;;;54.28;36.00;;;;;8.70;101528.00;;;;5107054;28;20106;-76
2021/07/06 03:22:55;;;;;;;53.65;34.85;;;;;8.70;101557.00;;;;5106850;28;20023;-76
2021/07/06 03:25:24;;;;;;;57.03;35.38;;;;;8.70;101543.00;;;;5107170;28;20024;-76
2021/07/06 03:27:50;;;;;;;55.97;33.33;;;;;8.70;101541.00;;;;5106899;28;20031;-76
2021/07/06 03:30:23;;;;;;;56.33;34.13;;;;;8.70;101540.00;;;;5106577;28;20020;-76
2021/07/06 03:32:51;;;;;;;47.25;32.55;;;;;8.60;101529.00;;;;5106984;28;20020;-76
2021/07/06 03:35:18;;;;;;;51.88;34.40;;;;;8.60;101522.00;;;;5106912;28;20028;-76
2021/07/06 03:37:46;;;;;;;57.95;35.95;;;;;8.60;101542.00;;;;5092316;28;20380;-76
2021/07/06 03:40:13;;;;;;;42.55;31.95;;;;;8.70;101538.00;;;;5110744;28;20483;-76
2021/07/06 03:42:40;;;;;;;49.25;33.70;;;;;8.60;101536.00;;;;5110721;28;20036;-76
2021/07/06 03:45:10;;;;;;;54.67;38.17;;;;;8.70;101518.00;;;;5110627;28;20055;-76
2021/07/06 03:47:37;;;;;;;84.07;50.95;;;;;8.70;101519.00;;;;5110510;28;20031;-76
2021/07/06 03:50:07;;;;;;;55.53;34.90;;;;;8.70;101517.00;;;;5111145;28;20028;-76
2021/07/06 03:52:34;;;;;;;50.42;33.28;;;;;8.60;101516.00;;;;5092120;28;20427;-76
2021/07/06 03:55:00;;;;;;;35.63;28.13;;;;;8.40;101529.00;;;;5110027;28;20530;-77
2021/07/06 03:57:29;;;;;;;45.70;30.10;;;;;8.40;101512.00;;;;5115509;28;20028;-75
2021/07/06 04:00:03;;;;;;;58.08;37.95;;;;;8.50;101512.00;;;;5126611;28;20024;-75
2021/07/06 04:02:30;;;;;;;65.80;42.03;;;;;8.60;101521.00;;;;5125575;28;20060;-75
2021/07/06 04:04:56;;;;;;;63.03;37.22;;;;;8.60;101529.00;;;;5110585;28;20035;-76
2021/07/06 04:07:23;;;;;;;57.90;38.65;;;;;8.40;101507.00;;;;5110654;28;20510;-76
2021/07/06 04:09:50;;;;;;;57.38;39.15;;;;;8.20;101527.00;;;;5110122;28;20244;-77
2021/07/06 04:12:16;;;;;;;56.17;36.30;;;;;8.30;101522.00;;;;5110393;28;20373;-76
2021/07/06 04:14:43;;;;;;;70.18;40.63;;;;;8.40;101512.00;;;;5110808;28;20027;-76
2021/07/06 04:17:10;;;;;;;57.83;36.97;;;;;8.40;101524.00;;;;5110188;28;20035;-76
2021/07/06 04:19:37;;;;;;;80.35;45.88;;;;;8.40;101511.00;;;;5109451;28;20028;-76
2021/07/06 04:22:04;;;;;;;64.72;42.33;;;;;8.20;101527.00;;;;5109740;28;20063;-75
2021/07/06 04:24:31;;;;;;;65.80;42.90;;;;;8.20;101530.00;;;;5109923;28;20035;-76
2021/07/06 04:27:01;;;;;;;83.50;46.13;;;;;8.10;101542.00;;;;5109875;28;20120;-76
2021/07/06 04:29:27;;;;;;;80.18;42.10;;;;;8.20;101517.00;;;;5110505;28;20393;-76
2021/07/06 04:31:55;;;;;;;89.35;40.30;;;;;8.30;101513.00;;;;5110232;28;20508;-75
2021/07/06 04:34:22;;;;;;;64.40;39.22;;;;;8.30;101506.00;;;;5110060;28;20028;-76
2021/07/06 04:36:49;;;;;;;91.45;38.55;;;;;8.10;101534.00;;;;5109396;28;20526;-76
2021/07/06 04:39:15;;;;;;;59.65;37.55;;;;;8.00;101518.00;;;;5110518;28;20028;-76
2021/07/06 04:41:43;;;;;;;51.42;36.38;;;;;8.00;101535.00;;;;5109754;28;20069;-76
2021/07/06 04:44:11;;;;;;;49.55;33.85;;;;;8.00;101518.00;;;;5109911;28;20118;-76
2021/07/06 04:46:38;;;;;;;54.40;33.75;;;;;8.00;101504.00;;;;5109875;28;20024;-76
2021/07/06 04:49:05;;;;;;;55.80;36.33;;;;;8.00;101535.00;;;;5090598;28;20028;-76
2021/07/06 04:51:33;;;;;;;42.38;32.60;;;;;7.80;101506.00;;;;5109244;28;20028;-76
2021/07/06 04:54:00;;;;;;;65.72;38.13;;;;;8.00;101509.00;;;;5109457;28;20036;-76
2021/07/06 04:56:28;;;;;;;228.35;43.17;;;;;8.10;101510.00;;;;5091236;28;20024;-76
2021/07/06 04:58:55;;;;;;;381.83;44.35;;;;;7.90;101535.00;;;;5109053;28;20031;-76
2021/07/06 05:01:23;;;;;;;314.63;43.25;;;;;7.90;101515.00;;;;5109208;28;20062;-76
2021/07/06 05:03:50;;;;;;;72.03;39.05;;;;;7.90;101502.00;;;;5108902;28;20487;-78
2021/07/06 05:06:20;;;;;;;71.30;36.15;;;;;7.80;101483.00;;;;5109276;28;20031;-76
2021/07/06 05:08:47;;;;;;;167.40;35.42;;;;;7.80;101519.00;;;;5109154;28;20063;-76
2021/07/06 05:11:15;;;;;;;225.93;37.90;;;;;7.70;101520.00;;;;5108857;28;20031;-76
2021/07/06 05:13:42;;;;;;;66.85;34.17;;;;;7.70;101532.00;;;;5109246;28;20418;-76
2021/07/06 05:16:09;;;;;;;47.92;32.13;;;;;7.70;101493.00;;;;5108830;28;20035;-78
2021/07/06 05:18:36;;;;;;;46.83;31.52;;;;;7.70;101495.00;;;;5108977;28;20110;-75
2021/07/06 05:21:03;;;;;;;58.90;35.88;;;;;7.70;101495.00;;;;5109101;28;20119;-78
2021/07/06 05:23:29;;;;;;;53.42;34.75;;;;;7.70;101501.00;;;;5108835;28;20152;-76
2021/07/06 05:25:56;;;;;;;48.33;33.17;;;;;7.70;101494.00;;;;5109118;28;20110;-76
2021/07/06 05:28:22;;;;;;;39.83;31.45;;;;;7.60;101494.00;;;;5109230;28;21132;-79
2021/07/06 05:30:49;;;;;;;39.45;28.70;;;;;7.70;101487.00;;;;5108446;28;20024;-78
2021/07/06 05:33:15;;;;;;;40.17;29.55;;;;;7.70;101497.00;;;;5108718;28;20031;-78
2021/07/06 05:35:42;;;;;;;55.05;35.05;;;;;7.70;101508.00;;;;5109094;28;20028;-77
2021/07/06 05:38:09;;;;;;;42.65;31.92;;;;;7.60;101493.00;;;;5108508;28;20024;-77
2021/07/06 05:40:39;;;;;;;55.97;35.20;;;;;7.60;101482.00;;;;5108801;28;20063;-77
2021/07/06 05:43:09;;;;;;;57.88;38.33;;;;;7.60;101484.00;;;;5108308;28;20104;-77
2021/07/06 05:45:36;;;;;;;55.38;35.40;;;;;7.60;101502.00;;;;5108143;28;20149;-77
2021/07/06 05:48:04;;;;;;;72.13;36.40;;;;;7.50;101492.00;;;;5108365;28;20391;-77
2021/07/06 05:50:30;;;;;;;84.90;36.92;;;;;7.60;101499.00;;;;5107862;28;20035;-77
2021/07/06 05:52:57;;;;;;;81.50;37.95;;;;;7.80;101477.00;;;;5108470;28;20038;-77
2021/07/06 05:55:23;;;;;;;75.50;36.80;;;;;7.90;101484.00;;;;5108425;28;20062;-77
2021/07/06 05:57:50;;;;;;;98.75;40.58;;;;;7.90;101467.00;;;;5108085;28;20122;-77
2021/07/06 06:00:17;;;;;;;176.93;44.63;;;;;7.90;101462.00;;;;5106635;28;20037;-77
2021/07/06 06:02:44;;;;;;;277.13;46.75;;;;;8.00;101459.00;;;;5107926;28;20055;-77
2021/07/06 06:05:11;;;;;;;692.97;63.03;;;;;8.10;101481.00;;;;5107949;28;20035;-77
2021/07/06 06:07:39;;;;;;;671.55;61.13;;;;;8.10;101461.00;;;;5108106;28;20549;-76
2021/07/06 06:10:10;;;;;;;635.40;61.65;;;;;8.10;101489.00;;;;5107797;28;20035;-78
2021/07/06 06:12:38;;;;;;;592.33;55.83;;;;;8.20;101455.00;;;;5108080;28;20380;-76
2021/07/06 06:15:07;;;;;;;478.10;48.50;;;;;8.20;101472.00;;;;5107865;28;20023;-76
2021/07/06 06:17:34;;;;;;;585.65;56.65;;;;;8.20;101476.00;;;;5108297;28;20031;-76
2021/07/06 06:20:00;;;;;;;500.85;52.10;;;;;8.20;101484.00;;;;5107367;28;20040;-77
2021/07/06 06:22:27;;;;;;;593.28;57.08;;;;;8.30;101446.00;;;;5107572;28;20031;-76
2021/07/06 06:24:54;;;;;;;399.60;47.03;;;;;8.40;101481.00;;;;5107317;28;20031;-76
2021/07/06 06:27:20;;;;;;;465.00;53.88;;;;;8.40;101459.00;;;;5107348;28;20041;-76
2021/07/06 06:29:47;;;;;;;379.58;55.03;;;;;8.50;101458.00;;;;5107485;28;20031;-76
2021/07/06 06:32:13;;;;;;;582.13;60.00;;;;;8.50;101470.00;;;;5107523;28;20034;-76
2021/07/06 06:34:40;;;;;;;544.97;56.63;;;;;8.50;101440.00;;;;5107567;28;20037;-77
2021/07/06 06:37:07;;;;;;;458.50;54.60;;;;;8.60;101473.00;;;;5107438;28;20027;-77
2021/07/06 06:39:33;;;;;;;673.47;64.35;;;;;8.60;101472.00;;;;5107645;28;20032;-76
2021/07/06 06:42:00;;;;;;;743.88;69.18;;;;;8.60;101474.00;;;;5107286;28;20039;-77
2021/07/06 06:44:27;;;;;;;532.70;61.97;;;;;8.70;101445.00;;;;5107372;28;20394;-76
2021/07/06 06:46:53;;;;;;;627.70;68.47;;;;;8.70;101467.00;;;;5107630;28;20035;-76
2021/07/06 06:49:20;;;;;;;784.22;80.53;;;;;8.70;101474.00;;;;5088556;28;20189;-76
2021/07/06 06:51:46;;;;;;;823.17;87.88;;;;;8.70;101457.00;;;;5107152;28;20116;-76
2021/07/06 06:54:13;;;;;;;562.53;66.35;;;;;8.70;101473.00;;;;5106746;28;20061;-77
2021/07/06 06:56:42;;;;;;;602.78;70.00;;;;;8.70;101470.00;;;;5107129;28;20043;-77
2021/07/06 06:59:08;;;;;;;746.40;79.72;;;;;8.70;101494.00;;;;5107253;28;20027;-78
2021/07/06 07:01:37;;;;;;;933.00;102.18;;;;;8.70;101486.00;;;;5107241;28;20066;-77
2021/07/06 07:04:05;;;;;;;694.13;85.38;;;;;8.80;101473.00;;;;5107402;28;20038;-78
2021/07/06 07:06:35;;;;;;;872.10;92.00;;;;;8.90;101479.00;;;;5107547;28;20406;-77
2021/07/06 07:09:07;;;;;;;797.05;87.78;;;;;8.80;101463.00;;;;5088743;28;20081;-77
2021/07/06 07:11:34;;;;;;;643.47;67.63;;;;;8.80;101479.00;;;;5109214;28;20487;-77
2021/07/06 07:14:01;;;;;;;692.80;68.85;;;;;8.80;101453.00;;;;5111330;28;20434;-77
2021/07/06 07:16:28;;;;;;;691.38;70.72;;;;;8.80;101464.00;;;;5092941;28;20034;-78
2021/07/06 07:18:55;;;;;;;764.63;85.45;;;;;8.80;101474.00;;;;5110844;28;20032;-78
2021/07/06 07:21:21;;;;;;;735.03;103.47;;;;;8.90;101471.00;;;;5111136;28;20032;-77
2021/07/06 07:23:48;;;;;;;571.30;89.57;;;;;8.90;101480.00;;;;5110956;28;20030;-77
2021/07/06 07:26:14;;;;;;;495.38;84.15;;;;;8.90;101481.00;;;;5110835;28;20424;-77
2021/07/06 07:28:41;;;;;;;451.17;80.75;;;;;8.80;101498.00;;;;5110954;28;20062;-77
2021/07/06 07:31:07;;;;;;;439.42;77.60;;;;;8.80;101477.00;;;;5111334;28;20028;-77
2021/07/06 07:33:34;;;;;;;449.60;76.60;;;;;8.90;101471.00;;;;5111267;28;20030;-78
2021/07/06 07:36:00;;;;;;;545.15;84.95;;;;;8.90;101494.00;;;;5111143;28;20042;-77
2021/07/06 07:38:27;;;;;;;487.23;78.00;;;;;8.90;101488.00;;;;5110943;28;20039;-77
2021/07/06 07:40:54;;;;;;;469.98;78.88;;;;;8.90;101499.00;;;;5110845;28;20023;-77
2021/07/06 07:43:20;;;;;;;549.35;79.07;;;;;8.90;101458.00;;;;5110031;28;20563;-77
2021/07/06 07:45:47;;;;;;;452.02;78.88;;;;;9.00;101462.00;;;;5110458;28;20042;-77
2021/07/06 07:48:13;;;;;;;363.73;67.57;;;;;8.90;101457.00;;;;5110353;28;20028;-77
2021/07/06 07:50:40;;;;;;;441.45;68.03;;;;;8.90;101490.00;;;;5110298;28;20031;-77
2021/07/06 07:53:06;;;;;;;459.40;72.35;;;;;9.00;101473.00;;;;5110710;28;20464;-77
2021/07/06 07:55:33;;;;;;;491.92;67.97;;;;;9.10;101463.00;;;;5110795;28;20509;-77
2021/07/06 07:58:00;;;;;;;480.88;66.18;;;;;9.00;101462.00;;;;5111359;28;20027;-78
2021/07/06 08:00:26;;;;;;;313.92;54.53;;;;;8.90;101467.00;;;;5110433;28;20019;-78
2021/07/06 08:02:53;;;;;;;385.00;58.08;;;;;9.00;101479.00;;;;5110172;28;20042;-77
2021/07/06 08:05:20;;;;;;;451.35;63.20;;;;;9.00;101468.00;;;;5110124;28;20027;-76
2021/07/06 08:07:46;;;;;;;351.58;55.25;;;;;9.00;101480.00;;;;5110237;28;20521;-77
2021/07/06 08:10:13;;;;;;;453.55;57.58;;;;;8.90;101483.00;;;;5110003;28;20038;-77
2021/07/06 08:12:40;;;;;;;293.20;51.25;;;;;8.90;101474.00;;;;5110179;28;20027;-77
2021/07/06 08:15:07;;;;;;;324.63;51.80;;;;;9.00;101463.00;;;;5110140;28;20101;-78
2021/07/06 08:17:33;;;;;;;281.10;46.13;;;;;8.80;101482.00;;;;5110347;28;20023;-79
2021/07/06 08:20:00;;;;;;;344.35;50.55;;;;;8.80;101482.00;;;;5110299;28;20027;-77
2021/07/06 08:22:27;;;;;;;331.45;51.03;;;;;8.90;101482.00;;;;5109600;28;20372;-78
2021/07/06 08:24:55;;;;;;;361.95;47.03;;;;;8.80;101485.00;;;;5109750;28;20035;-78
2021/07/06 08:27:21;;;;;;;391.88;52.33;;;;;8.80;101487.00;;;;5110286;28;20036;-77
2021/07/06 08:29:48;;;;;;;322.05;45.97;;;;;8.90;101501.00;;;;5109728;28;20019;-78
2021/07/06 08:32:15;;;;;;;465.05;57.20;;;;;9.00;101492.00;;;;5109407;28;20039;-78
2021/07/06 08:34:41;;;;;;;486.40;57.53;;;;;8.90;101465.00;;;;5109876;28;20059;-77
2021/07/06 08:37:09;;;;;;;379.52;52.63;;;;;8.90;101478.00;;;;5108968;28;20043;-78
2021/07/06 08:39:35;;;;;;;497.35;64.18;;;;;8.90;101483.00;;;;5109608;28;20483;-77
2021/07/06 08:42:06;;;;;;;471.45;58.88;;;;;8.90;101493.00;;;;5109571;28;20027;-77
2021/07/06 08:44:32;;;;;;;509.33;65.05;;;;;9.00;101495.00;;;;5109647;28;20028;-78
2021/07/06 08:47:03;;;;;;;433.83;60.60;;;;;9.00;101482.00;;;;5109323;28;20119;-77
2021/07/06 08:49:32;;;;;;;525.17;59.38;;;;;9.00;101503.00;;;;5109328;28;20391;-78
2021/07/06 08:52:01;;;;;;;434.67;57.20;;;;;9.00;101468.00;;;;5109837;28;20074;-78
2021/07/06 08:54:27;;;;;;;410.13;54.67;;;;;9.00;101497.00;;;;5109269;28;20407;-77
2021/07/06 08:56:54;;;;;;;369.55;52.22;;;;;8.90;101474.00;;;;5109465;28;20023;-79
2021/07/06 08:59:21;;;;;;;343.50;52.40;;;;;8.80;101503.00;;;;5109431;28;20028;-78
2021/07/06 09:01:47;;;;;;;387.45;55.42;;;;;8.80;101491.00;;;;5109324;28;20044;-77
2021/07/06 09:04:14;;;;;;;473.83;57.88;;;;;8.80;101477.00;;;;5108617;28;20495;-78
2021/07/06 09:06:57;;;;;;;425.55;53.15;;;;;8.80;101493.00;;;;5109715;28;20038;-78
2021/07/06 09:09:28;;;;;;;425.70;50.08;;;;;8.70;101512.00;;;;5109519;28;20027;-77
2021/07/06 09:11:56;;;;;;;371.27;51.53;;;;;8.80;101514.00;;;;5109064;28;20035;-78
2021/07/06 09:14:29;;;;;;;427.20;50.65;;;;;8.80;101500.00;;;;5108846;28;20028;-78
2021/07/06 09:17:14;;;;;;;434.20;53.17;;;;;8.80;101520.00;;;;5108613;28;20038;-77
2021/07/06 09:19:43;;;;;;;289.98;49.58;;;;;8.70;101491.00;;;;5108469;28;20028;-78
2021/07/06 09:22:23;;;;;;;231.05;47.55;;;;;8.70;101509.00;;;;5108918;28;20027;-78
2021/07/06 09:25:02;;;;;;;328.90;51.78;;;;;8.80;101500.00;;;;5109050;28;20023;-78
2021/07/06 09:27:34;;;;;;;253.80;48.75;;;;;8.70;101495.00;;;;5090423;28;20032;-78
2021/07/06 09:30:11;;;;;;;240.48;46.50;;;;;8.70;101532.00;;;;5108534;28;20042;-78
2021/07/06 09:32:41;;;;;;;265.00;49.03;;;;;8.70;101513.00;;;;5107945;28;20032;-78
2021/07/06 09:35:08;;;;;;;325.05;51.28;;;;;8.80;101546.00;;;;5108877;28;20102;-78
2021/07/06 09:37:54;;;;;;;250.45;47.55;;;;;8.70;101547.00;;;;5108776;28;20035;-78
2021/07/06 09:40:42;;;;;;;260.27;43.40;;;;;8.60;101539.00;;;;5108726;28;20073;-78
2021/07/06 09:43:26;;;;;;;219.63;41.13;;;;;8.50;101524.00;;;;5108218;28;20092;-75
2021/07/06 09:46:09;;;;;;;250.70;39.50;;;;;8.50;101543.00;;;;5108050;28;20032;-78
2021/07/06 09:48:44;;;;;;;201.38;38.17;;;;;8.50;101547.00;;;;5106620;28;20047;-79
2021/07/06 09:51:23;;;;;;;209.73;39.38;;;;;8.50;101533.00;;;;5109899;28;20057;-78
2021/07/06 09:53:54;;;;;;;297.38;39.47;;;;;8.40;101530.00;;;;5119747;28;20038;-78
2021/07/06 09:56:28;;;;;;;278.60;41.60;;;;;8.40;101522.00;;;;5118908;28;20034;-77
2021/07/06 09:59:00;;;;;;;388.70;41.42;;;;;8.30;101552.00;;;;5109627;28;20023;-77
2021/07/06 10:01:28;;;;;;;424.95;39.28;;;;;8.30;101547.00;;;;5108606;28;20440;-78
2021/07/06 10:03:56;;;;;;;440.42;36.28;;;;;8.20;101529.00;;;;5108513;28;20034;-79
2021/07/06 10:06:27;;;;;;;405.42;35.13;;;;;8.10;101530.00;;;;5106364;28;20032;-78
2021/07/06 10:08:54;;;;;;;;;;;;;8.10;101553.00;;;;5109557;28;20035;-75
2021/07/06 10:11:22;;;;;;;287.23;34.33;;;;;8.00;101525.00;;;;5107792;28;19972;-78
2021/07/06 10:13:50;;;;;;;416.67;38.78;;;;;8.00;101545.00;;;;5107690;28;20043;-79
2021/07/06 10:16:17;;;;;;;366.67;39.40;;;;;8.00;101548.00;;;;5108283;28;20038;-78
2021/07/06 10:18:45;;;;;;;335.90;39.97;;;;;8.00;101543.00;;;;5108339;28;20075;-79
2021/07/06 10:21:12;;;;;;;247.52;34.65;;;;;8.00;101539.00;;;;5107699;28;20031;-79
2021/07/06 10:23:42;;;;;;;302.83;37.05;;;;;8.00;101539.00;;;;5107949;28;20753;-78
2021/07/06 10:26:13;;;;;;;162.85;31.60;;;;;8.00;101546.00;;;;5108256;28;20034;-78
2021/07/06 10:28:40;;;;;;;260.75;34.88;;;;;7.90;101544.00;;;;5108019;28;20027;-79
2021/07/06 10:31:17;;;;;;;266.73;33.72;;;;;7.90;101571.00;;;;5107251;28;20040;-78
2021/07/06 10:33:49;;;;;;;263.08;35.35;;;;;7.90;101550.00;;;;5107459;28;20054;-77
2021/07/06 10:36:16;;;;;;;221.20;32.00;;;;;7.90;101574.00;;;;5108042;28;20062;-78
2021/07/06 10:38:46;;;;;;;211.77;35.40;;;;;8.00;101566.00;;;;5107866;28;20034;-79
2021/07/06 10:41:42;;;;;;;237.75;37.78;;;;;8.20;101563.00;;;;5107251;28;20034;-78
2021/07/06 10:44:09;;;;;;;212.30;30.92;;;;;8.10;101551.00;;;;5107614;28;20034;-77
2021/07/06 10:46:38;;;;;;;209.50;33.25;;;;;8.20;101574.00;;;;5107283;28;20023;-78
2021/07/06 10:49:26;;;;;;;200.70;34.90;;;;;8.20;101567.00;;;;5106838;28;20479;-78
2021/07/06 10:51:54;;;;;;;244.30;39.55;;;;;8.30;101597.00;;;;5106802;28;20020;-78
2021/07/06 10:54:21;;;;;;;363.55;39.58;;;;;8.30;101581.00;;;;5107307;28;20032;-79
2021/07/06 10:56:53;;;;;;;279.83;37.88;;;;;8.30;101582.00;;;;5106482;28;20483;-79
2021/07/06 10:59:25;;;;;;;471.40;44.15;;;;;8.30;101580.00;;;;5106901;28;20031;-79
2021/07/06 11:01:54;;;;;;;746.17;48.00;;;;;8.20;101596.00;;;;5107074;28;20050;-78
2021/07/06 11:04:50;;;;;;;617.85;38.80;;;;;8.20;101599.00;;;;5106731;28;20115;-78
2021/07/06 11:07:36;;;;;;;531.88;38.10;;;;;8.20;101601.00;;;;5106597;28;20056;-80
2021/07/06 11:10:05;;;;;;;634.17;36.05;;;;;8.20;101591.00;;;;5107594;28;20381;-78
2021/07/06 11:12:41;;;;;;;334.45;31.92;;;;;8.20;101597.00;;;;5107063;28;20027;-79
2021/07/06 11:15:15;;;;;;;632.97;40.10;;;;;8.30;101601.00;;;;5107471;28;20063;-77
2021/07/06 11:17:45;;;;;;;541.75;31.98;;;;;8.30;101599.00;;;;5107407;28;20024;-78
2021/07/06 11:20:16;;;;;;;482.40;34.25;;;;;8.40;101567.00;;;;5106737;28;20609;-79
2021/07/06 11:22:50;;;;;;;491.90;52.05;;;;;8.50;101581.00;;;;5106769;28;20035;-77
2021/07/06 11:25:21;;;;;;;459.25;29.17;;;;;8.40;101598.00;;;;5106323;28;20046;-77
2021/07/06 11:28:04;;;;;;;578.07;38.80;;;;;8.50;101593.00;;;;5107231;28;20189;-77
2021/07/06 11:30:50;;;;;;;540.55;31.27;;;;;8.60;101595.00;;;;5106779;28;20367;-78
2021/07/06 11:33:33;;;;;;;423.77;24.42;;;;;8.60;101584.00;;;;5088621;28;20176;-78
2021/07/06 11:36:02;;;;;;;437.73;27.63;;;;;8.50;101592.00;;;;5107170;28;20036;-78
2021/07/06 11:38:30;;;;;;;399.42;27.05;;;;;8.70;101597.00;;;;5106898;28;20387;-76
2021/07/06 11:40:59;;;;;;;243.35;23.05;;;;;8.90;101569.00;;;;5107741;28;20420;-78
2021/07/06 11:43:30;;;;;;;383.42;26.13;;;;;8.90;101608.00;;;;5106893;28;20063;-78
2021/07/06 11:46:24;;;;;;;341.15;22.75;;;;;8.90;101601.00;;;;5105959;28;20031;-78
2021/07/06 11:48:54;;;;;;;429.05;26.02;;;;;8.90;101585.00;;;;5103646;28;20040;-79
2021/07/06 11:51:23;;;;;;;305.93;22.07;;;;;8.90;101588.00;;;;5106657;28;20040;-78
2021/07/06 11:54:00;;;;;;;260.08;21.77;;;;;9.00;101589.00;;;;5107028;28;20072;-77
2021/07/06 11:56:29;;;;;;;272.27;22.55;;;;;8.90;101592.00;;;;5108858;28;20032;-80
2021/07/06 11:58:56;;;;;;;206.20;22.42;;;;;8.90;101572.00;;;;5112124;28;20066;-78
2021/07/06 12:01:27;;;;;;;185.18;20.60;;;;;9.00;101585.00;;;;5111809;28;20483;-78